Terminal Aerodrome Forecast
Issued by NWS

Home | Current Version | Previous Version | Text Only | Print | Product List | Glossary On
Versions: 1 2 3 4 5 6 7 8 9 10 11 12 13 14
219
FTUS46 KPDT 021738
TAFDLS
TAF
KDLS 021738Z 0218/0318 32004KT P6SM VCSH OVC070
     FM022000 33005KT P6SM -SHRA OVC050
     FM030300 31008KT P6SM VCSH BKN040
     FM030600 30008KT P6SM SCT015 BKN040
     FM030900 31011KT P6SM BKN015 BKN150=

USA.gov is the U.S. government's official web portal to all federal, state and local government web resources and services.